// World Multilingual Website with PHP & AJAX - Αναφορές Αεροδρομίων

Αναφορές Αεροδρομίων

 

KSJC - San Jose, California, USA
Distance from station: ΒΑ 14km
Ενημερώθηκε: 12/12/2019 02:53
Συννεφιά
Συννεφιά
 Ανεμος από ΝΝΑ
Ανεμος: ΝΝΑ 15 km/h
Θερμοκρασία: 17°C
Σημείο Δρόσου: 12°C
Υγρασία: 73%
Βαρόμετρο: 1022.4 hPa
Clouds: Συννεφιά
Visibility: 16 km
Cloud details: Few Clouds 152 m
Σχεδόν νεφελώδης 2286 m
Συννεφιά 4877 m
2019/12/12 00:53 KSJC 120053Z 16008KT 10SM FEW005 BKN075 OVC160 17/12 A3019 RMK AO2 SLP221 T01670117
KNUQ - Moffett Nas/Mtn, California, USA
Distance from station: Β 14km
Ενημερώθηκε: 21/11/2019 18:56
NOT Current

 
Βαρόμετρο: 1011.2 hPa
2019/11/21 16:56 KNUQ 211656Z AUTO A2986 RMK AO2 SLP116 PWINO $
 
KPAO - Palo Alto, California, USA
Distance from station: ΒΒΔ 23km
Ενημερώθηκε: 12/12/2019 02:47
Συννεφιά
Συννεφιά
 Ανεμος από ΝΑ
Ανεμος: ΝΑ 11 km/h
Θερμοκρασία: 17°C
Σημείο Δρόσου: 13°C
Υγρασία: 77%
Βαρόμετρο: 1022.4 hPa
Clouds: Συννεφιά
Visibility: 16 km
Cloud details: Few Clouds 610 m
Συννεφιά 914 m
2019/12/12 00:47 KPAO 120047Z 14006KT 10SM FEW020 OVC030 17/13 A3019
KRHV - San Jose/Reid, California, USA
Distance from station: ΑΒΑ 19km
Ενημερώθηκε: 12/12/2019 02:58
Σχεδόν νεφελώδης
Σχεδόν νεφελώδης
 Ανεμος από ΝΝΑ
Ανεμος: ΝΝΑ 15 km/h
Θερμοκρασία: 17°C
Σημείο Δρόσου: 12°C
Υγρασία: 73%
Βαρόμετρο: 1022.4 hPa
Clouds: Σχεδόν νεφελώδης
Visibility: 16 km
Cloud details: Σχεδόν νεφελώδης 1524 m
2019/12/12 00:58 KRHV 120058Z 15008KT 10SM BKN050 17/12 A3019
 
KOAK - Oakland, California, USA
Distance from station: ΒΒΔ 50km
Ενημερώθηκε: 12/12/2019 02:53
Συννεφιά
Συννεφιά
 Ανεμος από ΔΒΔ
Ανεμος: ΔΒΔ 9 km/h
Θερμοκρασία: 16°C
Σημείο Δρόσου: 12°C
Υγρασία: 77%
Βαρόμετρο: 1022.4 hPa
Clouds: Συννεφιά
Visibility: 16 km
Cloud details: Σχεδόν νεφελώδης 701 m
Συννεφιά 975 m
2019/12/12 00:53 KOAK 120053Z 29005KT 10SM BKN023 OVC032 16/12 A3019 RMK AO2 SLP224 T01560122
KSQL - San Carlos Airpo, California, USA
Distance from station: ΒΔ 34km
Ενημερώθηκε: 12/12/2019 02:47
Συννεφιά
Συννεφιά
 Ανεμος από calm
Ανεμος: Απνοια
Θερμοκρασία: 15°C
Σημείο Δρόσου: 13°C
Υγρασία: 88%
Βαρόμετρο: 1022.4 hPa
Clouds: Συννεφιά
Visibility: 16 km
Cloud details: Συννεφιά 732 m
2019/12/12 00:47 KSQL 120047Z 00000KT 10SM OVC024 15/13 A3019
 
KSFO - San Francisco, California, USA
Distance from station: ΒΔ 49km
Ενημερώθηκε: 12/12/2019 02:56
Mist, Συννεφιά
Mist, Συννεφιά
 Ανεμος από ΒΒΑ
Ανεμος: ΒΒΑ 7 km/h
Θερμοκρασία: 13°C
Σημείο Δρόσου: 12°C
Υγρασία: 94%
Βαρόμετρο: 1022 hPa
Περίληψη: Mist
Clouds: Συννεφιά
Visibility: 6 km
Cloud details: Μερικώς νεφελώδης 122 m
Σχεδόν νεφελώδης 305 m
Συννεφιά 457 m
2019/12/12 00:56 KSFO 120056Z 02004KT 4SM BR SCT004 BKN010 OVC015 13/12 A3018 RMK AO2 SLP219 T01330122
KE16 - San Martin, California, USA
Distance from station: ΑΝΑ 43km
Ενημερώθηκε: 14/11/2019 11:35
NOT Current
Συννεφιά
Συννεφιά
 Ανεμος από ΝΑ
Ανεμος: ΝΑ 11 km/h
Θερμοκρασία: 12°C
Σημείο Δρόσου: 10°C
Υγρασία: 88%
Βαρόμετρο: 1017.6 hPa
Clouds: Συννεφιά
Visibility: 16 km
Cloud details: Συννεφιά 427 m
2019/11/14 09:35 KE16 140935Z AUTO 13006KT 10SM OVC014 12/10 A3005 RMK AO2
 
KWVI - Watsonville, California, USA
Distance from station: ΝΝΑ 44km
Ενημερώθηκε: 12/12/2019 02:53
Συννεφιά
Συννεφιά
 Ανεμος από Β
Ανεμος: Β 7 km/h
Θερμοκρασία: 14°C
Σημείο Δρόσου: 13°C
Υγρασία: 94%
Βαρόμετρο: 1023 hPa
Clouds: Συννεφιά
Visibility: 16 km
Cloud details: Συννεφιά 549 m
2019/12/12 00:53 KWVI 120053Z AUTO 35004KT 10SM OVC018 14/13 A3021 RMK AO2 SLP230 T01440133
KHAF - Half Moon Bay, California, USA
Distance from station: ΔΒΔ 50km
Ενημερώθηκε: 12/12/2019 03:00
Συννεφιά
Συννεφιά
 Ανεμος από ΝΝΑ
Ανεμος: ΝΝΑ 19 km/h
Θερμοκρασία: 14°C
Σημείο Δρόσου: 14°C
Υγρασία: 100%
Βαρόμετρο: 1022 hPa
Clouds: Συννεφιά
Visibility: 11 km
Cloud details: Συννεφιά 213 m
2019/12/12 01:00 KHAF 120100Z AUTO 15010KT 7SM OVC007 14/14 A3018 RMK AO2
 
KHWD - Hayward, California, USA
Distance from station: Β 44km
Ενημερώθηκε: 12/12/2019 02:54
Συννεφιά
Συννεφιά
 Ανεμος από ΝΝΔ
Ανεμος: ΝΝΔ 9 km/h
Θερμοκρασία: 17°C
Σημείο Δρόσου: 12°C
Υγρασία: 73%
Βαρόμετρο: 1022.4 hPa
Clouds: Συννεφιά
Visibility: 16 km
Cloud details: Συννεφιά 762 m
2019/12/12 00:54 KHWD 120054Z 20005KT 10SM OVC025 17/12 A3019 RMK AO2 SLP232 T01670117
KLVK - Livermore, California, USA
Distance from station: ΒΒΑ 51km
Ενημερώθηκε: 12/12/2019 02:53
Mist, Σχεδόν νεφελώδης
Mist, Σχεδόν νεφελώδης
 Ανεμος από Α
Ανεμος: Α 11 km/h
Θερμοκρασία: 13°C
Σημείο Δρόσου: 11°C
Υγρασία: 88%
Βαρόμετρο: 1022 hPa
Περίληψη: Mist
Clouds: Σχεδόν νεφελώδης
Visibility: 10 km
Cloud details: Σχεδόν νεφελώδης 762 m
2019/12/12 00:53 KLVK 120053Z 09006KT 6SM BR BKN025 13/11 A3018 RMK AO2 SLP219 T01280106